createdAt,value
2022-10-25T00:01:53.407Z,0.50
2022-10-25T00:06:48.748Z,0.20
2022-10-25T00:09:15.520Z,0.20
2022-10-25T00:11:43.363Z,0.10
2022-10-25T00:14:10.160Z,0.20
2022-10-25T00:16:38.178Z,0.10
2022-10-25T00:19:05.935Z,0.15
2022-10-25T00:21:32.626Z,0.10
2022-10-25T00:23:59.375Z,0.10
2022-10-25T00:26:26.078Z,0.20
2022-10-25T00:28:54.952Z,0.10
2022-10-25T00:31:22.523Z,0.10
2022-10-25T00:33:49.361Z,0.22
2022-10-25T00:36:19.387Z,0.10
2022-10-25T00:38:46.420Z,0.20
2022-10-25T00:41:16.364Z,0.30
2022-10-25T00:43:49.168Z,0.32
2022-10-25T00:46:19.507Z,0.50
2022-10-25T00:49:03.525Z,0.50
2022-10-25T00:51:41.690Z,0.30
2022-10-25T00:54:13.205Z,0.52
2022-10-25T00:59:12.731Z,0.30
2022-10-25T01:01:39.879Z,0.40
2022-10-25T01:04:10.094Z,0.35
2022-10-25T01:06:42.726Z,0.52
2022-10-25T01:09:13.499Z,0.45
2022-10-25T01:11:40.637Z,0.60
2022-10-25T01:14:10.786Z,0.20
2022-10-25T01:17:14.690Z,0.20
2022-10-25T01:20:18.406Z,0.30
2022-10-25T01:23:20.961Z,0.10
2022-10-25T01:25:56.728Z,0.50
2022-10-25T01:28:48.754Z,0.30
2022-10-25T01:31:26.531Z,0.22
2022-10-25T01:33:56.186Z,0.30
2022-10-25T01:36:39.547Z,0.90
2022-10-25T01:39:13.073Z,0.20
2022-10-25T01:42:30.392Z,0.20
2022-10-25T01:45:07.191Z,0.10
2022-10-25T01:47:47.364Z,0.20
2022-10-25T01:50:29.779Z,0.20
2022-10-25T01:52:56.507Z,0.20
2022-10-25T01:55:37.444Z,0.10
2022-10-25T01:58:51.832Z,0.30
2022-10-25T02:01:30.324Z,0.20
2022-10-25T02:04:18.270Z,0.28
2022-10-25T02:07:20.937Z,0.20
2022-10-25T02:10:02.699Z,0.20
2022-10-25T02:13:06.172Z,0.10
2022-10-25T02:15:51.028Z,0.28
2022-10-25T02:18:23.668Z,0.32
2022-10-25T02:20:52.666Z,0.30
2022-10-25T02:23:21.025Z,0.20
2022-10-25T02:25:49.645Z,0.20
2022-10-25T02:28:18.824Z,0.20
2022-10-25T02:30:45.912Z,0.22
2022-10-25T02:33:12.576Z,0.10
2022-10-25T02:35:39.863Z,0.30
2022-10-25T02:38:06.655Z,0.20
2022-10-25T02:40:34.918Z,0.10
2022-10-25T02:43:01.770Z,0.20
2022-10-25T02:45:28.527Z,0.20
2022-10-25T02:47:55.232Z,0.15
2022-10-25T02:50:21.906Z,0.30
2022-10-25T02:52:48.627Z,0.20
2022-10-25T02:55:15.574Z,0.65
2022-10-25T02:57:42.207Z,0.30
2022-10-25T03:00:10.370Z,0.20
2022-10-25T03:02:36.993Z,0.25
2022-10-25T03:05:03.799Z,0.28
2022-10-25T03:07:30.498Z,0.20
2022-10-25T03:09:57.276Z,0.15
2022-10-25T03:12:23.952Z,0.30
2022-10-25T03:14:50.679Z,0.17
2022-10-25T03:17:17.330Z,0.25
2022-10-25T03:19:44.222Z,0.25
2022-10-25T03:22:10.861Z,0.13
2022-10-25T03:24:37.537Z,0.13
2022-10-25T03:27:04.249Z,0.10
2022-10-25T03:29:31.030Z,0.22
2022-10-25T03:31:57.854Z,0.20
2022-10-25T03:34:24.592Z,0.40
2022-10-25T03:36:52.332Z,0.20
2022-10-25T03:39:19.277Z,0.30
2022-10-25T03:41:45.916Z,0.28
2022-10-25T03:44:12.562Z,0.13
2022-10-25T03:46:39.237Z,0.25
2022-10-25T03:49:05.937Z,0.30
2022-10-25T03:51:32.637Z,0.20
2022-10-25T03:53:59.309Z,0.20
2022-10-25T03:56:25.997Z,0.20
2022-10-25T03:58:53.303Z,0.20
2022-10-25T04:01:20.077Z,0.20
2022-10-25T04:03:47.141Z,0.20
2022-10-25T04:06:13.899Z,0.40
2022-10-25T04:08:40.535Z,0.20
2022-10-25T04:11:07.289Z,0.30
2022-10-25T04:13:33.958Z,0.22
2022-10-25T04:16:05.160Z,0.32
2022-10-25T04:18:31.821Z,0.50
2022-10-25T04:20:58.622Z,0.57
2022-10-25T04:23:25.297Z,0.20
2022-10-25T04:25:56.455Z,0.30
2022-10-25T04:28:24.137Z,0.25
2022-10-25T04:30:50.806Z,0.30
2022-10-25T04:33:17.734Z,0.55
2022-10-25T04:35:44.717Z,0.30
2022-10-25T04:38:11.435Z,0.20
2022-10-25T04:40:38.063Z,0.60
2022-10-25T04:43:04.838Z,0.32
2022-10-25T04:45:31.780Z,0.25
2022-10-25T04:47:58.478Z,0.32
2022-10-25T04:50:25.183Z,0.20
2022-10-25T04:52:51.815Z,0.20
2022-10-25T04:55:18.527Z,0.20
2022-10-25T04:57:45.189Z,0.20
2022-10-25T05:00:12.385Z,0.20
2022-10-25T05:02:39.055Z,0.30
2022-10-25T05:05:06.389Z,0.22
2022-10-25T05:07:33.022Z,0.20
2022-10-25T05:09:59.715Z,0.15
2022-10-25T05:12:26.696Z,0.20
2022-10-25T05:14:53.343Z,0.20
2022-10-25T05:17:20.015Z,0.20
2022-10-25T05:19:46.675Z,2.30
2022-10-25T05:22:13.359Z,0.60
2022-10-25T05:24:40.032Z,0.20
2022-10-25T05:27:06.793Z,0.30
2022-10-25T05:29:33.515Z,0.30
2022-10-25T05:32:00.310Z,0.55
2022-10-25T05:34:27.685Z,0.20
2022-10-25T05:36:54.857Z,0.30
2022-10-25T05:39:21.702Z,0.20
2022-10-25T05:41:49.713Z,0.30
2022-10-25T05:44:17.054Z,0.20
2022-10-25T05:46:44.837Z,0.13
2022-10-25T05:49:12.197Z,0.20
2022-10-25T05:51:39.139Z,0.20
2022-10-25T05:54:10.045Z,0.15
2022-10-25T05:56:37.458Z,0.10
2022-10-25T05:59:09.898Z,0.30
2022-10-25T06:01:42.314Z,0.10
2022-10-25T06:04:09.910Z,2.35
2022-10-25T06:06:38.615Z,3.35
2022-10-25T06:09:06.337Z,1.92
2022-10-25T06:11:33.689Z,0.77
2022-10-25T06:14:00.721Z,0.40
2022-10-25T06:16:28.032Z,0.30
2022-10-25T06:18:55.044Z,0.30
2022-10-25T06:21:30.505Z,0.43
2022-10-25T06:23:59.366Z,0.10
2022-10-25T06:26:28.995Z,0.30
2022-10-25T06:28:58.491Z,2.10
2022-10-25T06:31:25.484Z,0.45
2022-10-25T06:33:52.245Z,0.45
2022-10-25T06:36:21.449Z,0.73
2022-10-25T06:38:49.695Z,0.30
2022-10-25T06:41:21.685Z,0.30
2022-10-25T06:43:49.185Z,0.40
2022-10-25T06:46:18.545Z,0.25
2022-10-25T06:48:45.284Z,0.25
2022-10-25T06:51:12.001Z,0.50
2022-10-25T06:53:39.069Z,0.35
2022-10-25T06:56:10.575Z,0.30
2022-10-25T06:58:40.898Z,0.28
2022-10-25T07:01:11.114Z,0.20
2022-10-25T07:03:38.019Z,0.15
2022-10-25T07:06:07.488Z,0.35
2022-10-25T07:08:35.815Z,0.10
2022-10-25T07:11:03.778Z,0.30
2022-10-25T07:13:32.467Z,0.32
2022-10-25T07:16:07.155Z,0.25
2022-10-25T07:18:35.836Z,0.20
2022-10-25T07:21:17.041Z,0.20
2022-10-25T07:23:43.963Z,0.30
2022-10-25T07:26:16.747Z,0.20
2022-10-25T07:28:45.600Z,0.10
2022-10-25T07:31:14.057Z,0.75
2022-10-25T07:33:41.109Z,0.10
2022-10-25T07:36:11.927Z,0.17
2022-10-25T07:38:39.064Z,0.40
2022-10-25T07:41:06.111Z,0.73
2022-10-25T07:43:33.095Z,0.30
2022-10-25T07:45:59.841Z,0.40
2022-10-25T07:48:26.954Z,0.40
2022-10-25T07:50:53.729Z,0.30
2022-10-25T07:53:20.572Z,0.40
2022-10-25T07:55:55.397Z,0.35
2022-10-25T07:58:22.580Z,0.30
2022-10-25T08:00:49.446Z,0.30
2022-10-25T08:03:17.795Z,0.20
2022-10-25T08:05:46.209Z,0.25
2022-10-25T08:08:13.881Z,0.20
2022-10-25T08:10:44.504Z,0.20
2022-10-25T08:13:11.679Z,0.40
2022-10-25T08:15:40.866Z,0.28
2022-10-25T08:18:07.998Z,0.30
2022-10-25T08:21:00.784Z,0.43
2022-10-25T08:23:21.743Z,0.17
2022-10-25T08:25:48.385Z,0.30
2022-10-25T08:28:15.369Z,0.30
2022-10-25T08:30:42.227Z,0.50
2022-10-25T08:33:11.648Z,0.30
2022-10-25T08:35:39.089Z,0.30
2022-10-25T08:38:06.359Z,0.52
2022-10-25T08:41:01.964Z,0.40
2022-10-25T08:43:47.266Z,0.40
2022-10-25T08:46:22.431Z,0.60
2022-10-25T08:48:54.144Z,0.38
2022-10-25T08:51:35.937Z,0.55
2022-10-25T08:54:11.798Z,0.20
2022-10-25T08:56:46.595Z,0.52
2022-10-25T08:59:30.138Z,0.38
2022-10-25T09:02:00.197Z,0.47
2022-10-25T09:04:30.237Z,0.50
2022-10-25T09:07:37.325Z,0.88
2022-10-25T09:10:20.019Z,0.50
2022-10-25T09:13:07.008Z,0.30
2022-10-25T09:15:52.629Z,0.30
2022-10-25T09:18:29.804Z,0.55
2022-10-25T09:20:58.455Z,0.30
2022-10-25T09:23:33.223Z,0.40
2022-10-25T09:26:21.182Z,0.45
2022-10-25T09:29:02.689Z,0.50
2022-10-25T09:31:37.301Z,0.70
2022-10-25T09:34:08.829Z,0.70
2022-10-25T09:36:45.273Z,0.45
2022-10-25T09:39:22.242Z,0.63
2022-10-25T09:41:53.808Z,9.60
2022-10-25T09:44:32.095Z,1.38
2022-10-25T09:47:09.591Z,1.30
2022-10-25T09:49:56.421Z,0.70
2022-10-25T09:52:40.647Z,0.60
2022-10-25T09:55:43.803Z,0.47
2022-10-25T09:58:19.768Z,0.52
2022-10-25T10:00:47.059Z,0.60
2022-10-25T10:03:14.679Z,0.57
2022-10-25T10:05:47.698Z,0.45
2022-10-25T10:08:14.479Z,0.63
2022-10-25T10:10:42.024Z,0.80
2022-10-25T10:13:23.715Z,0.60
2022-10-25T10:18:23.679Z,0.50
2022-10-25T10:20:58.118Z,0.60
2022-10-25T10:23:26.926Z,0.60
2022-10-25T10:25:53.816Z,0.70
2022-10-25T10:28:21.553Z,0.50
2022-10-25T10:30:58.403Z,0.45
2022-10-25T10:33:32.941Z,0.60
2022-10-25T10:36:29.586Z,0.50
2022-10-25T10:39:19.725Z,1.13
2022-10-25T10:42:03.317Z,0.77
2022-10-25T10:44:35.703Z,0.90
2022-10-25T10:47:11.286Z,0.60
2022-10-25T10:49:40.930Z,0.60
2022-10-25T10:52:27.388Z,0.70
2022-10-25T10:54:54.843Z,0.80
2022-10-25T10:57:33.981Z,0.50
2022-10-25T11:00:01.676Z,0.57
2022-10-25T11:02:38.046Z,0.60
2022-10-25T11:05:18.663Z,0.90
2022-10-25T11:07:45.888Z,0.90
2022-10-25T11:10:15.824Z,1.00
2022-10-25T11:12:44.071Z,0.65
2022-10-25T11:15:12.064Z,0.40
2022-10-25T11:17:58.248Z,1.08
2022-10-25T11:20:44.543Z,0.95
2022-10-25T11:23:46.163Z,1.15
2022-10-25T11:29:20.788Z,0.75
2022-10-25T11:32:09.754Z,0.63
2022-10-25T11:34:51.452Z,0.80
2022-10-25T11:37:24.025Z,1.08
2022-10-25T11:40:20.162Z,1.10
2022-10-25T11:42:58.726Z,1.02
2022-10-25T11:45:37.375Z,0.70
2022-10-25T11:48:13.427Z,0.90
2022-10-25T11:50:45.073Z,0.80
2022-10-25T11:53:33.009Z,1.05
2022-10-25T11:56:08.874Z,1.08
2022-10-25T11:58:46.171Z,0.60
2022-10-25T12:01:31.471Z,1.05
2022-10-25T12:04:37.813Z,0.93
2022-10-25T12:07:12.184Z,1.17
2022-10-25T12:09:45.893Z,1.00
2022-10-25T12:12:17.252Z,1.00
2022-10-25T12:17:26.959Z,1.13
2022-10-25T12:19:58.453Z,0.88
2022-10-25T12:22:31.057Z,1.40
2022-10-25T12:25:01.624Z,1.35
2022-10-25T12:27:29.947Z,0.90
2022-10-25T12:30:06.584Z,1.23
2022-10-25T12:32:50.737Z,1.10
2022-10-25T12:35:32.188Z,0.95
2022-10-25T12:40:49.760Z,1.00
2022-10-25T12:43:38.922Z,1.15
2022-10-25T12:46:41.905Z,1.10
2022-10-25T12:49:33.813Z,1.30
2022-10-25T12:52:09.345Z,1.40
2022-10-25T12:55:01.939Z,1.40
2022-10-25T12:57:59.450Z,1.10
2022-10-25T13:00:32.337Z,0.77
2022-10-25T13:03:40.011Z,0.77
2022-10-25T13:06:22.349Z,1.13
2022-10-25T13:08:49.415Z,0.85
2022-10-25T13:11:16.412Z,0.90
2022-10-25T13:13:52.281Z,1.30
2022-10-25T13:16:27.815Z,0.80
2022-10-25T13:19:21.695Z,1.02
2022-10-25T13:21:57.204Z,0.95
2022-10-25T13:24:41.667Z,1.23
2022-10-25T13:27:18.950Z,1.85
2022-10-25T13:30:04.275Z,2.03
2022-10-25T13:32:33.591Z,1.98
2022-10-25T13:35:03.669Z,1.83
2022-10-25T13:37:33.492Z,2.75
2022-10-25T13:40:26.827Z,2.13
2022-10-25T13:43:05.955Z,1.58
2022-10-25T13:45:35.565Z,1.70
2022-10-25T13:48:23.014Z,1.80
2022-10-25T13:50:54.592Z,1.58
2022-10-25T13:53:21.470Z,2.22
2022-10-25T13:56:07.208Z,1.35
2022-10-25T13:58:33.996Z,1.77
2022-10-25T14:01:16.071Z,1.30
2022-10-25T14:04:19.227Z,2.40
2022-10-25T14:06:46.064Z,1.70
2022-10-25T14:09:28.143Z,1.65
2022-10-25T14:12:16.754Z,1.83
2022-10-25T14:15:02.841Z,2.13
2022-10-25T14:17:39.345Z,1.65
2022-10-25T14:20:16.717Z,1.30
2022-10-25T14:22:50.602Z,1.25
2022-10-25T14:25:38.207Z,1.80
2022-10-25T14:28:13.629Z,1.52
2022-10-25T14:30:45.116Z,1.30
2022-10-25T14:33:48.823Z,1.17
2022-10-25T14:36:25.307Z,1.77
2022-10-25T14:38:57.668Z,1.20
2022-10-25T14:41:27.068Z,1.67
2022-10-25T14:43:54.642Z,2.13
2022-10-25T14:46:23.522Z,1.75
2022-10-25T14:48:55.977Z,1.73
2022-10-25T14:51:30.767Z,1.30
2022-10-25T14:54:02.071Z,1.90
2022-10-25T14:58:58.300Z,1.30
2022-10-25T15:01:25.727Z,1.50
2022-10-25T15:03:56.759Z,1.35
2022-10-25T15:06:25.985Z,1.35
2022-10-25T15:09:23.077Z,1.42
2022-10-25T15:12:08.590Z,1.60
2022-10-25T15:14:35.635Z,1.10
2022-10-25T15:17:14.730Z,0.88
2022-10-25T15:20:14.032Z,1.13
2022-10-25T15:22:43.070Z,1.38
2022-10-25T15:25:21.647Z,1.40
2022-10-25T15:27:49.978Z,0.90
2022-10-25T15:30:41.071Z,5.50
2022-10-25T15:33:13.720Z,1.55
2022-10-25T15:36:05.009Z,1.67
2022-10-25T15:39:05.844Z,1.20
2022-10-25T15:41:22.002Z,1.42
2022-10-25T15:43:48.683Z,1.60
2022-10-25T15:46:34.949Z,0.90
2022-10-25T15:49:06.861Z,0.98
2022-10-25T15:51:36.142Z,1.20
2022-10-25T15:54:03.034Z,1.63
2022-10-25T15:56:29.808Z,3.60
2022-10-25T15:58:58.679Z,1.35
2022-10-25T16:01:25.574Z,1.55
2022-10-25T16:03:52.342Z,1.10
2022-10-25T16:06:19.026Z,1.52
2022-10-25T16:08:45.851Z,1.25
2022-10-25T16:11:19.005Z,3.22
2022-10-25T16:13:48.550Z,1.80
2022-10-25T16:16:39.965Z,1.60
2022-10-25T16:19:14.210Z,1.00
2022-10-25T16:21:40.938Z,1.25
2022-10-25T16:24:07.651Z,1.10
2022-10-25T16:26:43.651Z,0.90
2022-10-25T16:29:16.449Z,1.58
2022-10-25T16:31:43.947Z,1.33
2022-10-25T16:34:10.965Z,1.20
2022-10-25T16:36:38.395Z,1.38
2022-10-25T16:39:06.378Z,14.05
2022-10-25T16:41:33.482Z,7.43
2022-10-25T16:44:00.226Z,2.58
2022-10-25T16:46:27.054Z,2.13
2022-10-25T16:48:55.943Z,2.00
2022-10-25T16:51:25.835Z,1.85
2022-10-25T16:53:52.832Z,1.67
2022-10-25T16:56:19.519Z,1.40
2022-10-25T16:58:46.261Z,1.27
2022-10-25T17:01:27.081Z,2.08
2022-10-25T17:03:54.738Z,1.30
2022-10-25T17:06:40.193Z,1.30
2022-10-25T17:09:08.307Z,1.02
2022-10-25T17:11:36.164Z,1.02
2022-10-25T17:14:02.999Z,5.93
2022-10-25T17:16:29.675Z,3.78
2022-10-25T17:18:56.436Z,1.60
2022-10-25T17:21:23.667Z,1.33
2022-10-25T17:23:50.494Z,1.75
2022-10-25T17:26:17.174Z,1.08
2022-10-25T17:28:44.522Z,0.80
2022-10-25T17:31:13.711Z,1.38
2022-10-25T17:33:42.394Z,1.02
2022-10-25T17:36:12.258Z,1.35
2022-10-25T17:38:39.197Z,1.27
2022-10-25T17:41:06.353Z,1.45
2022-10-25T17:43:37.407Z,1.20
2022-10-25T17:46:09.772Z,2.25
2022-10-25T17:48:36.474Z,1.40
2022-10-25T17:51:09.309Z,1.42
2022-10-25T17:53:36.342Z,1.67
2022-10-25T17:56:18.228Z,1.27
2022-10-25T17:58:46.787Z,0.90
2022-10-25T18:01:19.729Z,2.67
2022-10-25T18:03:46.879Z,1.15
2022-10-25T18:06:15.852Z,0.70
2022-10-25T18:08:42.752Z,1.30
2022-10-25T18:11:15.520Z,1.20
2022-10-25T18:13:42.280Z,1.38
2022-10-25T18:16:10.645Z,0.88
2022-10-25T18:18:38.314Z,1.27
2022-10-25T18:21:13.664Z,1.45
2022-10-25T18:23:40.932Z,1.10
2022-10-25T18:26:09.407Z,1.52
2022-10-25T18:28:36.588Z,1.90
2022-10-25T18:31:09.163Z,1.48
2022-10-25T18:33:38.143Z,1.30
2022-10-25T18:36:18.039Z,1.13
2022-10-25T18:38:45.880Z,1.13
2022-10-25T18:41:18.221Z,1.55
2022-10-25T18:43:45.426Z,2.25
2022-10-25T18:46:12.239Z,1.75
2022-10-25T18:48:39.197Z,1.35
2022-10-25T18:51:08.138Z,1.45
2022-10-25T18:53:39.450Z,1.98
2022-10-25T18:58:36.952Z,0.90
2022-10-25T19:01:20.562Z,1.20
2022-10-25T19:03:47.380Z,1.98
2022-10-25T19:06:14.040Z,1.10
2022-10-25T19:08:40.728Z,1.15
2022-10-25T19:11:13.851Z,0.90
2022-10-25T19:13:41.018Z,1.23
2022-10-25T19:16:08.295Z,1.50
2022-10-25T19:18:36.638Z,1.13
2022-10-25T19:21:09.433Z,1.52
2022-10-25T19:23:37.379Z,1.00
2022-10-25T19:26:10.261Z,1.10
2022-10-25T19:28:36.977Z,1.60
2022-10-25T19:31:11.490Z,1.67
2022-10-25T19:33:38.257Z,1.55
2022-10-25T19:36:10.237Z,1.23
2022-10-25T19:38:38.255Z,1.40
2022-10-25T19:41:07.811Z,1.27
2022-10-25T19:43:34.976Z,1.95
2022-10-25T19:46:04.727Z,1.08
2022-10-25T19:48:32.156Z,1.08
2022-10-25T19:51:05.398Z,1.30
2022-10-25T19:53:32.321Z,1.70
2022-10-25T19:56:00.063Z,2.47
2022-10-25T19:58:27.265Z,2.10
2022-10-25T20:01:07.897Z,1.50
2022-10-25T20:03:35.808Z,0.98
2022-10-25T20:06:08.186Z,1.70
2022-10-25T20:08:37.050Z,1.42
2022-10-25T20:11:04.216Z,1.58
2022-10-25T20:13:31.534Z,2.20
2022-10-25T20:15:58.298Z,1.92
2022-10-25T20:18:30.024Z,2.22
2022-10-25T20:21:02.741Z,1.45
2022-10-25T20:23:29.884Z,1.60
2022-10-25T20:25:56.562Z,1.27
2022-10-25T20:28:23.450Z,1.52
2022-10-25T20:30:51.131Z,1.40
2022-10-25T20:33:19.918Z,1.63
2022-10-25T20:35:46.548Z,1.65
2022-10-25T20:38:14.380Z,9.48
2022-10-25T20:40:41.312Z,3.60
2022-10-25T20:43:10.111Z,2.25
2022-10-25T20:45:36.930Z,1.80
2022-10-25T20:48:03.860Z,1.45
2022-10-25T20:50:31.355Z,1.20
2022-10-25T20:53:09.645Z,2.22
2022-10-25T20:55:36.651Z,1.50
2022-10-25T20:58:03.295Z,1.80
2022-10-25T21:00:30.037Z,2.47
2022-10-25T21:02:56.734Z,1.50
2022-10-25T21:05:23.393Z,1.70
2022-10-25T21:07:50.474Z,2.33
2022-10-25T21:10:17.540Z,1.27
2022-10-25T21:12:45.288Z,1.75
2022-10-25T21:15:12.479Z,1.48
2022-10-25T21:17:39.449Z,2.10
2022-10-25T21:20:07.502Z,2.10
2022-10-25T21:22:34.270Z,1.88
2022-10-25T21:25:00.954Z,1.75
2022-10-25T21:27:27.707Z,2.08
2022-10-25T21:29:54.336Z,2.30
2022-10-25T21:32:21.039Z,1.77
2022-10-25T21:34:47.711Z,2.30
2022-10-25T21:37:14.471Z,2.20
2022-10-25T21:39:42.238Z,1.60
2022-10-25T21:42:10.070Z,1.73
2022-10-25T21:44:36.729Z,1.92
2022-10-25T21:47:03.438Z,2.20
2022-10-25T21:49:30.187Z,1.73
2022-10-25T21:51:56.942Z,2.63
2022-10-25T21:54:24.788Z,2.20
2022-10-25T21:56:57.998Z,3.05
2022-10-25T21:59:24.703Z,2.58
2022-10-25T22:01:51.474Z,2.92
2022-10-25T22:04:18.434Z,2.95
2022-10-25T22:06:48.035Z,2.25
2022-10-25T22:09:14.810Z,2.97
2022-10-25T22:11:41.992Z,2.15
2022-10-25T22:14:12.482Z,2.22
2022-10-25T22:16:39.912Z,2.07
2022-10-25T22:19:12.651Z,2.15
2022-10-25T22:21:40.670Z,3.35
2022-10-25T22:24:09.387Z,2.70
2022-10-25T22:26:37.640Z,3.47
2022-10-25T22:29:04.922Z,3.67
2022-10-25T22:31:32.258Z,2.72
2022-10-25T22:34:04.379Z,2.53
2022-10-25T22:36:33.362Z,2.75
2022-10-25T22:39:00.505Z,2.65
2022-10-25T22:41:29.186Z,3.30
2022-10-25T22:43:56.323Z,2.83
2022-10-25T22:46:30.597Z,2.75
2022-10-25T22:48:58.689Z,3.58
2022-10-25T22:51:27.394Z,2.42
2022-10-25T22:53:56.279Z,3.53
2022-10-25T22:56:25.976Z,2.70
2022-10-25T22:58:59.848Z,2.65
2022-10-25T23:01:31.723Z,3.55
2022-10-25T23:03:59.286Z,3.25
2022-10-25T23:06:31.451Z,3.40
2022-10-25T23:09:00.526Z,3.22
2022-10-25T23:11:32.274Z,4.00
2022-10-25T23:13:59.767Z,4.00
2022-10-25T23:16:31.970Z,3.35
2022-10-25T23:19:01.687Z,4.93
2022-10-25T23:21:32.154Z,4.25
2022-10-25T23:24:00.127Z,3.03
2022-10-25T23:26:32.176Z,3.47
2022-10-25T23:29:00.283Z,3.35
2022-10-25T23:31:29.606Z,2.75
2022-10-25T23:33:58.305Z,3.28
2022-10-25T23:36:30.418Z,3.33
2022-10-25T23:38:58.893Z,2.80
2022-10-25T23:41:25.681Z,3.67
2022-10-25T23:43:52.358Z,3.70
2022-10-25T23:46:19.102Z,4.55
2022-10-25T23:48:46.012Z,3.75
2022-10-25T23:51:16.192Z,3.03
2022-10-25T23:53:43.318Z,3.53
2022-10-25T23:56:12.391Z,4.35
2022-10-25T23:58:39.401Z,2.90
